createdAt,value
2023-02-13T00:01:53.359Z,17.55
2023-02-13T00:05:54.841Z,17.17
2023-02-13T00:09:56.296Z,16.42
2023-02-13T00:13:58.397Z,15.68
2023-02-13T00:18:00.052Z,15.63
2023-02-13T00:22:02.615Z,12.40
2023-02-13T00:26:09.589Z,14.30
2023-02-13T00:30:11.665Z,10.45
2023-02-13T00:34:13.188Z,12.18
2023-02-13T00:38:14.652Z,8.70
2023-02-13T00:42:16.115Z,9.77
2023-02-13T00:46:18.378Z,9.23
2023-02-13T00:50:19.852Z,8.55
2023-02-13T00:54:21.269Z,6.95
2023-02-13T00:58:23.490Z,5.75
2023-02-13T01:02:25.332Z,6.03
2023-02-13T01:06:26.841Z,5.70
2023-02-13T01:10:28.363Z,4.15
2023-02-13T01:14:29.865Z,3.38
2023-02-13T01:18:31.395Z,4.03
2023-02-13T01:22:32.973Z,4.03
2023-02-13T01:26:34.412Z,2.53
2023-02-13T01:30:36.624Z,2.95
2023-02-13T01:34:38.056Z,3.20
2023-02-13T01:38:40.452Z,3.22
2023-02-13T01:42:41.928Z,3.08
2023-02-13T01:46:44.231Z,2.92
2023-02-13T01:50:52.618Z,2.63
2023-02-13T01:54:54.287Z,3.33
2023-02-13T01:58:59.977Z,2.80
2023-02-13T02:03:08.806Z,2.95
2023-02-13T02:07:23.463Z,2.60
2023-02-13T02:12:03.067Z,3.15
2023-02-13T02:16:04.911Z,2.58
2023-02-13T02:20:15.558Z,2.42
2023-02-13T02:24:40.119Z,2.70
2023-02-13T02:29:32.256Z,3.15
2023-02-13T02:34:06.981Z,2.90
2023-02-13T02:38:43.047Z,3.00
2023-02-13T02:43:21.984Z,3.47
2023-02-13T02:48:24.164Z,3.67
